Time;durP1;ratioP1;P1;durP2;ratioP2;P2;SDS_P1;SDS_P2;PMS_P1;PMS_P2;Temp;Humidity;BMP_temperature;BMP_pressure;BME280_temperature;BME280_humidity;BME280_pressure;Samples;Min_cycle;Max_cycle;Signal;HPM_P1;HPM_P2
2021/03/31 00:00:37;;;;;;;29.67;17.40;;;;;;;11.85;76.42;101468.91;5072259;28;20544;-49
2021/03/31 00:03:11;;;;;;;28.35;15.90;;;;;;;11.80;76.35;101471.06;5072166;28;20098;-52
2021/03/31 00:05:38;;;;;;;32.92;16.00;;;;;;;11.77;76.43;101472.56;5071496;28;20072;-48
2021/03/31 00:08:05;;;;;;;36.80;17.38;;;;;;;11.74;76.35;101466.84;5072414;28;20049;-51
2021/03/31 00:10:35;;;;;;;29.52;17.00;;;;;;;11.70;76.42;101477.00;5053708;28;20060;-49
2021/03/31 00:13:03;;;;;;;32.22;18.13;;;;;;;11.63;76.71;101471.94;5069509;28;20132;-51
2021/03/31 00:15:31;;;;;;;29.45;15.85;;;;;;;11.61;76.70;101480.59;5070562;28;20048;-49
2021/03/31 00:18:18;;;;;;;32.92;16.58;;;;;;;11.58;76.58;101481.28;5069841;28;20056;-50
2021/03/31 00:20:45;;;;;;;30.70;16.33;;;;;;;11.57;76.66;101485.19;5069599;28;20449;-48
2021/03/31 00:23:14;;;;;;;30.15;16.98;;;;;;;11.54;76.85;101479.50;5069571;28;20505;-50
2021/03/31 00:25:41;;;;;;;30.63;17.00;;;;;;;11.51;76.74;101480.16;5070394;28;20068;-48
2021/03/31 00:28:09;;;;;;;28.52;16.13;;;;;;;11.50;76.81;101484.91;5071110;28;20564;-48
2021/03/31 00:30:37;;;;;;;28.02;15.05;;;;;;;11.50;76.81;101478.53;5072278;28;20048;-50
2021/03/31 00:33:04;;;;;;;40.25;19.38;;;;;;;11.48;76.61;101478.06;5072068;28;20044;-48
2021/03/31 00:35:31;;;;;;;28.70;16.33;;;;;;;11.46;76.76;101483.13;5071657;28;20128;-48
2021/03/31 00:37:58;;;;;;;29.27;16.63;;;;;;;11.41;76.88;101470.25;5071077;28;20052;-51
2021/03/31 00:40:27;;;;;;;33.17;16.00;;;;;;;11.36;77.14;101473.19;5058595;28;20048;-48
2021/03/31 00:42:54;;;;;;;27.98;16.40;;;;;;;11.33;77.11;101478.63;5054057;28;20386;-50
2021/03/31 00:45:21;;;;;;;28.38;16.20;;;;;;;11.24;77.48;101481.41;5070809;28;20454;-49
2021/03/31 00:47:47;;;;;;;31.38;15.02;;;;;;;11.18;77.58;101477.19;5072039;28;20040;-49
2021/03/31 00:50:17;;;;;;;31.67;16.30;;;;;;;11.16;77.67;101479.50;5067344;28;20075;-48
2021/03/31 00:52:45;;;;;;;29.52;15.38;;;;;;;11.17;77.48;101470.03;5071967;28;20070;-49
2021/03/31 00:55:13;;;;;;;32.85;17.70;;;;;;;11.16;77.39;101476.72;5071049;28;20040;-47
2021/03/31 00:57:41;;;;;;;40.67;19.40;;;;;;;11.15;77.31;101468.72;5071337;28;20076;-49
2021/03/31 01:00:10;;;;;;;28.48;17.35;;;;;;;11.14;77.21;101465.16;5071631;28;20134;-49
2021/03/31 01:02:38;;;;;;;30.17;15.50;;;;;;;11.11;77.19;101467.78;5071560;28;20063;-50
2021/03/31 01:05:08;;;;;;;31.83;15.43;;;;;;;11.11;77.27;101463.03;5071002;28;20051;-51
2021/03/31 01:07:34;;;;;;;30.40;16.15;;;;;;;11.13;77.15;101466.28;5069856;28;20444;-49
2021/03/31 01:10:01;;;;;;;27.60;16.23;;;;;;;11.09;77.04;101457.03;5071044;28;20102;-48
2021/03/31 01:12:49;;;;;;;30.38;15.02;;;;;;;11.03;77.79;101458.34;5071532;28;20401;-48
2021/03/31 01:15:30;;;;;;;30.42;15.13;;;;;;;10.98;77.43;101462.13;5071351;28;20137;-51
2021/03/31 01:18:05;;;;;;;34.92;17.08;;;;;;;10.92;77.59;101457.06;5063804;28;20083;-52
2021/03/31 01:20:42;;;;;;;31.15;17.45;;;;;;;10.95;77.49;101461.94;5071292;28;20444;-48
2021/03/31 01:23:34;;;;;;;28.98;14.35;;;;;;;10.89;77.41;101455.78;5071155;28;20079;-48
2021/03/31 01:26:39;;;;;;;30.15;15.25;;;;;;;10.83;77.83;101453.50;5030676;28;20466;-49
2021/03/31 01:29:33;;;;;;;29.90;16.08;;;;;;;10.79;77.70;101456.13;5071381;28;20131;-48
2021/03/31 01:32:19;;;;;;;26.83;14.32;;;;;;;10.74;78.38;101452.72;5091443;28;20093;-49
2021/03/31 01:34:54;;;;;;;26.58;13.75;;;;;;;10.67;77.87;101450.44;5073238;28;20123;-49
2021/03/31 01:37:33;;;;;;;27.80;16.20;;;;;;;10.65;77.95;101449.13;5068291;28;20480;-48
2021/03/31 01:40:05;;;;;;;22.98;13.75;;;;;;;10.60;78.03;101439.06;5070801;28;20041;-52
2021/03/31 01:42:47;;;;;;;30.60;16.20;;;;;;;10.59;77.97;101447.72;5070829;28;20032;-48
2021/03/31 01:45:17;;;;;;;29.38;15.10;;;;;;;10.52;78.24;101442.66;5070513;28;20381;-47
2021/03/31 01:47:46;;;;;;;27.10;14.98;;;;;;;10.53;78.23;101447.06;5069731;28;20508;-47
2021/03/31 01:50:13;;;;;;;32.28;16.90;;;;;;;10.52;78.17;101430.75;5071037;28;20136;-47
2021/03/31 01:52:41;;;;;;;29.63;15.80;;;;;;;10.49;78.23;101439.72;5069347;28;20137;-47
2021/03/31 01:55:11;;;;;;;28.25;15.00;;;;;;;10.46;78.57;101429.31;5070689;28;20486;-46
2021/03/31 01:57:39;;;;;;;27.88;15.85;;;;;;;10.47;78.28;101430.94;5069734;28;20460;-48
2021/03/31 02:00:07;;;;;;;44.88;18.88;;;;;;;10.43;78.44;101427.22;5068534;28;20086;-50
2021/03/31 02:02:33;;;;;;;35.88;15.43;;;;;;;10.47;78.12;101422.63;5069239;28;20055;-46
2021/03/31 02:05:02;;;;;;;41.95;17.80;;;;;;;10.44;78.27;101429.63;5068037;28;20082;-48
2021/03/31 02:07:29;;;;;;;34.80;15.98;;;;;;;10.43;78.16;101421.66;5069590;28;20044;-46
2021/03/31 02:09:57;;;;;;;28.50;16.10;;;;;;;10.42;78.30;101417.25;5070414;28;20436;-47
2021/03/31 02:12:25;;;;;;;31.42;15.13;;;;;;;10.43;78.37;101413.38;5070644;28;20362;-48
2021/03/31 02:14:54;;;;;;;29.38;14.65;;;;;;;10.42;78.26;101420.03;5059438;28;20037;-49
2021/03/31 02:17:26;;;;;;;27.33;15.50;;;;;;;10.39;78.29;101408.47;5070804;28;20502;-50
2021/03/31 02:19:54;;;;;;;31.23;16.40;;;;;;;10.39;78.26;101405.72;5053443;28;20429;-48
2021/03/31 02:22:23;;;;;;;30.45;14.73;;;;;;;10.37;78.30;101408.00;5073479;28;20114;-48
2021/03/31 02:24:50;;;;;;;25.05;14.27;;;;;;;10.38;78.19;101394.94;5074659;28;20048;-48
2021/03/31 02:27:16;;;;;;;31.08;14.32;;;;;;;10.39;78.15;101399.34;5074390;28;20040;-49
2021/03/31 02:29:47;;;;;;;28.35;14.13;;;;;;;10.39;78.01;101400.19;5074706;28;20048;-48
2021/03/31 02:32:17;;;;;;;23.52;13.93;;;;;;;10.38;77.85;101398.53;5074583;28;20098;-47
2021/03/31 02:34:44;;;;;;;23.88;13.45;;;;;;;10.37;77.90;101401.66;5073638;28;20492;-47
2021/03/31 02:37:12;;;;;;;29.77;13.93;;;;;;;10.31;78.14;101395.47;5073650;28;20045;-47
2021/03/31 02:39:40;;;;;;;23.27;12.45;;;;;;;10.27;78.14;101386.16;5074503;28;20076;-48
2021/03/31 02:42:12;;;;;;;25.15;12.00;;;;;;;10.22;78.43;101383.56;5074147;28;20048;-49
2021/03/31 02:44:42;;;;;;;21.73;11.43;;;;;;;10.21;78.47;101375.63;5068328;28;20052;-48
2021/03/31 02:47:11;;;;;;;28.08;11.75;;;;;;;10.17;78.29;101369.91;5073469;28;20143;-47
2021/03/31 02:49:41;;;;;;;25.67;13.50;;;;;;;10.18;78.32;101366.00;5074341;28;20094;-50
2021/03/31 02:52:09;;;;;;;22.63;11.18;;;;;;;10.16;78.31;101367.50;5073651;28;20052;-50
2021/03/31 02:54:36;;;;;;;26.30;11.30;;;;;;;10.14;78.13;101369.78;5073987;28;20127;-48
2021/03/31 02:57:03;;;;;;;20.25;10.60;;;;;;;10.13;78.19;101373.66;5073604;28;20486;-49
2021/03/31 02:59:29;;;;;;;15.25;10.35;;;;;;;10.09;78.31;101379.00;5073385;28;21683;-48
2021/03/31 03:01:55;;;;;;;18.20;9.68;;;;;;;10.07;78.21;101375.75;5073872;28;20058;-47
2021/03/31 03:04:22;;;;;;;19.73;10.25;;;;;;;10.03;78.48;101373.97;5074211;28;20083;-48
2021/03/31 03:06:49;;;;;;;13.32;8.60;;;;;;;10.00;78.53;101383.75;5072744;28;20040;-48
2021/03/31 03:09:16;;;;;;;20.08;10.25;;;;;;;9.98;78.60;101382.44;5074109;28;20552;-50
2021/03/31 03:11:44;;;;;;;21.85;9.45;;;;;;;9.97;78.55;101378.03;5069111;28;20040;-51
2021/03/31 03:14:12;;;;;;;14.93;8.80;;;;;;;9.95;78.59;101386.66;5071497;28;20065;-49
2021/03/31 03:16:38;;;;;;;16.17;8.15;;;;;;;9.98;78.47;101376.91;5072708;28;20092;-51
2021/03/31 03:19:05;;;;;;;15.60;7.78;;;;;;;9.93;78.70;101380.63;5074264;28;20135;-48
2021/03/31 03:21:32;;;;;;;19.88;8.95;;;;;;;9.91;78.55;101388.44;5072774;28;20440;-49
2021/03/31 03:23:59;;;;;;;17.00;7.88;;;;;;;9.91;78.53;101382.91;5073233;28;20072;-48
2021/03/31 03:26:26;;;;;;;11.60;6.82;;;;;;;9.90;78.55;101380.50;5073119;28;20047;-47
2021/03/31 03:28:54;;;;;;;14.90;7.30;;;;;;;9.88;78.54;101383.56;5073230;28;20071;-52
2021/03/31 03:31:21;;;;;;;15.20;6.20;;;;;;;9.86;78.52;101379.50;5072885;28;20040;-50
2021/03/31 03:33:48;;;;;;;12.63;7.32;;;;;;;9.81;78.66;101388.78;5071554;28;20102;-47
2021/03/31 03:36:15;;;;;;;13.60;7.03;;;;;;;9.82;78.74;101376.59;5071810;28;20383;-49
2021/03/31 03:38:42;;;;;;;11.35;7.03;;;;;;;9.85;78.56;101383.41;5069764;28;20068;-48
2021/03/31 03:41:13;;;;;;;13.60;7.13;;;;;;;9.82;78.75;101389.59;5073036;28;20555;-49
2021/03/31 03:43:41;;;;;;;11.52;5.95;;;;;;;9.82;78.55;101390.41;5072388;28;20127;-51
2021/03/31 03:46:13;;;;;;;18.60;9.60;;;;;;;9.78;78.78;101383.88;5073159;28;20048;-50
2021/03/31 03:48:40;;;;;;;11.05;6.47;;;;;;;9.76;78.82;101388.94;5072638;28;20044;-50
2021/03/31 03:51:08;;;;;;;10.85;6.00;;;;;;;9.76;78.67;101387.00;5067946;28;20037;-47
2021/03/31 03:53:36;;;;;;;14.32;6.47;;;;;;;9.74;79.00;101382.91;5072736;28;20048;-48
2021/03/31 03:56:09;;;;;;;13.45;5.88;;;;;;;9.72;78.97;101379.63;5073306;28;20048;-50
2021/03/31 03:58:36;;;;;;;;;;;;;;;9.71;79.03;101383.56;5072892;28;20033;-48
2021/03/31 04:01:03;;;;;;;13.68;5.90;;;;;;;9.75;78.52;101379.00;5072449;28;19924;-50
2021/03/31 04:03:29;;;;;;;15.77;7.13;;;;;;;9.76;78.36;101375.09;5072559;28;20048;-51
2021/03/31 04:05:56;;;;;;;10.25;5.35;;;;;;;9.75;78.19;101371.53;5066035;28;20056;-51
2021/03/31 04:08:22;;;;;;;10.63;5.22;;;;;;;9.75;78.21;101365.16;5070006;28;20040;-48
2021/03/31 04:10:52;;;;;;;11.07;5.32;;;;;;;9.76;78.28;101361.28;5071532;28;20091;-51
2021/03/31 04:13:23;;;;;;;9.95;4.82;;;;;;;9.74;78.32;101361.59;5072858;28;20043;-52
2021/03/31 04:15:56;;;;;;;10.20;4.65;;;;;;;9.74;78.42;101360.81;5071516;28;20571;-49
2021/03/31 04:18:24;;;;;;;11.50;6.20;;;;;;;9.73;78.13;101359.16;5072478;28;20076;-48
2021/03/31 04:20:51;;;;;;;12.88;5.88;;;;;;;9.71;78.33;101361.44;5070582;28;20469;-48
2021/03/31 04:23:18;;;;;;;17.27;8.20;;;;;;;9.65;78.54;101369.09;5072914;28;20099;-49
2021/03/31 04:25:44;;;;;;;11.20;5.63;;;;;;;9.63;78.68;101370.53;5071991;28;20067;-50
2021/03/31 04:28:12;;;;;;;12.70;5.47;;;;;;;9.62;78.76;101357.84;5072488;28;20466;-48
2021/03/31 04:30:40;;;;;;;12.77;7.65;;;;;;;9.61;78.72;101356.25;5071586;28;20454;-49
2021/03/31 04:33:10;;;;;;;12.57;6.38;;;;;;;9.63;78.58;101365.84;5072202;28;20094;-50
2021/03/31 04:35:37;;;;;;;10.43;5.47;;;;;;;9.64;78.51;101352.81;5072079;28;20074;-49
2021/03/31 04:38:12;;;;;;;10.88;5.88;;;;;;;9.63;78.68;101365.00;5071051;28;20048;-49
2021/03/31 04:40:51;;;;;;;10.18;5.45;;;;;;;9.60;78.64;101360.13;5069910;28;20114;-49
2021/03/31 04:43:18;;;;;;;9.95;5.60;;;;;;;9.56;78.78;101350.84;5071952;28;20490;-48
2021/03/31 04:45:45;;;;;;;10.45;5.65;;;;;;;9.56;78.78;101359.13;5071283;28;20051;-49
2021/03/31 04:48:12;;;;;;;11.65;5.70;;;;;;;9.53;78.91;101352.31;5071820;28;20043;-47
2021/03/31 04:50:39;;;;;;;9.07;5.50;;;;;;;9.53;78.93;101351.50;5071357;28;20173;-47
2021/03/31 04:53:06;;;;;;;9.93;4.55;;;;;;;9.53;79.05;101351.50;5071664;28;20044;-49
2021/03/31 04:55:33;;;;;;;11.95;6.10;;;;;;;9.56;78.99;101356.38;5071954;28;20393;-49
2021/03/31 04:57:59;;;;;;;10.35;5.85;;;;;;;9.56;78.89;101364.66;5071340;28;20533;-50
2021/03/31 05:00:26;;;;;;;13.23;6.10;;;;;;;9.57;79.10;101367.13;5070698;28;20044;-47
2021/03/31 05:02:52;;;;;;;13.45;5.25;;;;;;;9.59;78.83;101358.50;5071853;28;20044;-48
2021/03/31 05:05:19;;;;;;;15.10;6.30;;;;;;;9.57;78.81;101360.78;5071383;28;20098;-52
2021/03/31 05:07:45;;;;;;;11.43;5.30;;;;;;;9.58;78.85;101356.88;5071685;28;20041;-47
2021/03/31 05:10:11;;;;;;;9.38;5.45;;;;;;;9.61;78.64;101357.03;5070955;28;20071;-49
2021/03/31 05:12:38;;;;;;;13.50;5.95;;;;;;;9.62;78.46;101352.31;5072204;28;20048;-49
2021/03/31 05:15:09;;;;;;;10.20;5.88;;;;;;;9.61;78.33;101353.47;5070438;28;20044;-47
2021/03/31 05:17:35;;;;;;;10.82;5.47;;;;;;;9.62;78.61;101341.25;5071901;28;20048;-49
2021/03/31 05:20:03;;;;;;;10.20;5.35;;;;;;;9.63;78.19;101348.44;5071331;28;20044;-49
2021/03/31 05:22:29;;;;;;;11.77;5.95;;;;;;;9.61;78.63;101350.72;5070999;28;20048;-48
2021/03/31 05:24:55;;;;;;;16.38;5.63;;;;;;;9.61;78.46;101345.97;5071440;28;20502;-48
2021/03/31 05:27:22;;;;;;;10.00;5.32;;;;;;;9.60;78.37;101344.38;5070765;28;20733;-48
2021/03/31 05:29:49;;;;;;;15.60;5.93;;;;;;;9.55;78.56;101343.69;5070466;28;20053;-48
2021/03/31 05:32:15;;;;;;;18.45;6.22;;;;;;;9.50;78.87;101339.16;5071479;28;20094;-48
2021/03/31 05:34:42;;;;;;;12.25;6.28;;;;;;;9.48;79.07;101346.13;5071050;28;20449;-48
2021/03/31 05:37:09;;;;;;;12.85;5.97;;;;;;;9.48;79.14;101344.16;5056907;28;20115;-47
2021/03/31 05:39:36;;;;;;;11.10;5.13;;;;;;;9.48;79.10;101351.63;5050741;28;20049;-49
2021/03/31 05:42:02;;;;;;;14.07;5.10;;;;;;;9.49;79.27;101345.81;5049890;28;20521;-48
2021/03/31 05:44:30;;;;;;;10.15;6.70;;;;;;;9.51;79.05;101342.72;5055211;28;20505;-48
2021/03/31 05:46:57;;;;;;;8.52;5.35;;;;;;;9.49;79.22;101347.75;5051625;28;20041;-48
2021/03/31 05:49:26;;;;;;;11.73;6.07;;;;;;;9.49;79.25;101354.09;5050170;28;20071;-47
2021/03/31 05:51:52;;;;;;;11.05;6.03;;;;;;;9.50;79.26;101355.75;5047855;28;20041;-47
2021/03/31 05:54:19;;;;;;;11.43;5.00;;;;;;;9.49;79.22;101356.88;5051003;28;20125;-49
2021/03/31 05:56:45;;;;;;;9.50;5.70;;;;;;;9.50;79.31;101347.44;5050672;28;20459;-48
2021/03/31 05:59:14;;;;;;;11.02;5.57;;;;;;;9.50;79.31;101350.22;5051113;28;20127;-47
2021/03/31 06:01:41;;;;;;;11.90;5.82;;;;;;;9.51;79.34;101351.00;5055152;28;20048;-47
2021/03/31 06:04:07;;;;;;;11.02;5.65;;;;;;;9.52;79.18;101350.69;5059476;28;20040;-47
2021/03/31 06:06:33;;;;;;;12.88;6.57;;;;;;;9.52;79.43;101358.16;5050428;28;20057;-47
2021/03/31 06:09:06;;;;;;;14.85;6.65;;;;;;;9.52;79.49;101352.63;5050670;28;20095;-51
2021/03/31 06:11:54;;;;;;;16.95;6.85;;;;;;;9.50;79.53;101349.38;5050961;28;20099;-50
2021/03/31 06:14:38;;;;;;;11.43;6.13;;;;;;;9.52;79.35;101341.59;5050413;28;20045;-48
2021/03/31 06:17:10;;;;;;;11.02;6.55;;;;;;;9.52;79.40;101347.13;5050646;28;20041;-48
2021/03/31 06:19:41;;;;;;;14.27;6.50;;;;;;;9.55;79.30;101347.28;5058596;28;20033;-49
2021/03/31 06:22:26;;;;;;;13.15;6.95;;;;;;;9.57;79.38;101346.94;5049538;28;20037;-47
2021/03/31 06:25:00;;;;;;;10.88;7.80;;;;;;;9.56;79.37;101337.84;5050374;28;20079;-47
2021/03/31 06:27:28;;;;;;;10.38;5.68;;;;;;;9.60;79.42;101349.06;5050543;28;20049;-46
2021/03/31 06:30:06;;;;;;;11.05;5.57;;;;;;;9.65;79.16;101354.44;5049379;28;20040;-47
2021/03/31 06:32:39;;;;;;;15.10;7.47;;;;;;;9.70;79.05;101352.34;5050713;28;20048;-47
2021/03/31 06:35:15;;;;;;;13.55;6.07;;;;;;;9.71;78.96;101355.91;5050724;28;20482;-48
2021/03/31 06:37:43;;;;;;;13.43;6.20;;;;;;;9.75;79.06;101356.88;5062837;28;20168;-47
2021/03/31 06:40:33;;;;;;;13.45;5.93;;;;;;;9.79;79.15;101363.41;5057906;28;20108;-48
2021/03/31 06:43:37;;;;;;;11.45;6.43;;;;;;;9.82;79.13;101362.75;5056769;28;20486;-48
2021/03/31 06:46:06;;;;;;;;;;;;;;;9.86;79.00;101363.72;5062454;28;20052;-52
2021/03/31 06:48:34;;;;;;;13.95;7.75;;;;;;;9.89;78.98;101360.31;5031404;28;20370;-48
2021/03/31 06:51:01;;;;;;;11.43;7.55;;;;;;;9.92;79.15;101362.44;5050393;28;20462;-49
2021/03/31 06:53:30;;;;;;;15.98;7.90;;;;;;;9.98;79.09;101369.41;5061943;28;20398;-47
2021/03/31 06:55:58;;;;;;;15.65;8.57;;;;;;;10.03;79.11;101369.25;5058802;28;20052;-47
2021/03/31 06:58:25;;;;;;;16.15;8.32;;;;;;;10.09;79.19;101379.00;5053170;28;20123;-47
2021/03/31 07:00:51;;;;;;;19.40;8.80;;;;;;;10.12;79.34;101378.38;5053579;28;20448;-47
2021/03/31 07:03:19;;;;;;;17.27;8.43;;;;;;;10.16;79.37;101379.38;5049985;28;20219;-46
2021/03/31 07:05:46;;;;;;;18.63;8.25;;;;;;;10.21;79.51;101381.97;5050872;28;20122;-47
2021/03/31 07:08:15;;;;;;;14.35;8.95;;;;;;;10.28;79.49;101379.50;5035896;28;20045;-46
2021/03/31 07:10:42;;;;;;;20.30;9.45;;;;;;;10.37;79.34;101374.78;5053245;28;20053;-48
2021/03/31 07:13:08;;;;;;;16.70;8.48;;;;;;;10.46;79.23;101376.72;5053421;28;20068;-46
2021/03/31 07:15:35;;;;;;;17.40;9.73;;;;;;;10.53;79.21;101365.94;5053976;28;20040;-47
2021/03/31 07:18:03;;;;;;;16.90;10.10;;;;;;;10.60;79.31;101372.59;5051698;28;20136;-46
2021/03/31 07:20:31;;;;;;;24.42;11.63;;;;;;;10.67;79.21;101372.09;5032698;28;20152;-49
2021/03/31 07:23:01;;;;;;;19.02;9.60;;;;;;;10.74;79.48;101372.41;5034094;28;20450;-47
2021/03/31 07:25:28;;;;;;;21.48;9.60;;;;;;;10.79;79.39;101369.44;5034017;28;20465;-47
2021/03/31 07:27:57;;;;;;;19.75;9.57;;;;;;;10.83;79.65;101370.41;5065330;28;20048;-47
2021/03/31 07:30:26;;;;;;;17.10;9.75;;;;;;;10.91;79.80;101375.91;5073133;28;20044;-47
2021/03/31 07:33:19;;;;;;;14.68;7.88;;;;;;;10.96;79.88;101378.50;5060164;28;20068;-47
2021/03/31 07:35:47;;;;;;;16.27;6.40;;;;;;;11.02;79.70;101368.03;5063699;28;20052;-47
2021/03/31 07:38:18;;;;;;;15.07;6.70;;;;;;;11.09;79.90;101368.34;5072648;28;20063;-54
2021/03/31 07:40:46;;;;;;;16.88;7.50;;;;;;;11.17;79.86;101372.22;5038519;28;20135;-47
2021/03/31 07:43:15;;;;;;;16.38;8.93;;;;;;;11.29;79.65;101375.91;5057519;28;20098;-48
2021/03/31 07:45:57;;;;;;;16.30;7.90;;;;;;;11.37;79.63;101380.59;5054856;28;20501;-50
2021/03/31 07:48:24;;;;;;;12.77;7.93;;;;;;;11.40;79.42;101385.47;5054040;28;20041;-53
2021/03/31 07:50:50;;;;;;;14.57;7.57;;;;;;;11.45;79.52;101384.44;5050071;28;20041;-48
2021/03/31 07:53:22;;;;;;;21.55;8.27;;;;;;;11.55;79.47;101382.09;5063538;28;20155;-46
2021/03/31 07:55:50;;;;;;;16.55;8.15;;;;;;;11.67;79.21;101377.78;5069314;28;20044;-48
2021/03/31 07:58:20;;;;;;;18.25;8.63;;;;;;;11.69;79.14;101378.28;5069887;28;20048;-47
2021/03/31 08:01:02;;;;;;;16.52;8.13;;;;;;;11.74;78.85;101378.09;5069996;28;20094;-47
2021/03/31 08:03:49;;;;;;;;;;;;;;;11.82;78.73;101374.44;5069250;28;20044;-49
2021/03/31 08:06:22;;;;;;;15.63;7.63;;;;;;;11.90;78.65;101371.59;5069965;28;19932;-47
2021/03/31 08:08:50;;;;;;;15.55;8.25;;;;;;;11.97;78.45;101376.59;5058944;28;20889;-51
2021/03/31 08:11:36;;;;;;;15.95;8.20;;;;;;;12.09;78.09;101368.34;5066270;28;20119;-48
2021/03/31 08:14:04;;;;;;;14.40;8.38;;;;;;;12.15;78.13;101372.53;5061045;28;20078;-53
2021/03/31 08:16:34;;;;;;;12.75;7.53;;;;;;;12.25;77.97;101385.16;5069196;28;20135;-52
2021/03/31 08:19:04;;;;;;;13.43;7.45;;;;;;;12.35;77.85;101371.69;5064497;28;20448;-49
2021/03/31 08:21:31;;;;;;;12.82;8.10;;;;;;;12.48;77.69;101366.97;5068567;28;20064;-48
2021/03/31 08:24:03;;;;;;;12.52;7.80;;;;;;;12.58;77.46;101380.41;5069428;28;20505;-48
2021/03/31 08:26:37;;;;;;;16.67;8.02;;;;;;;12.63;77.41;101378.22;5067963;28;20393;-48
2021/03/31 08:29:28;;;;;;;12.95;6.75;;;;;;;12.76;77.06;101371.53;5059582;28;20099;-51
2021/03/31 08:31:58;;;;;;;13.80;7.32;;;;;;;12.87;76.75;101366.34;5066558;28;20052;-47
2021/03/31 08:34:27;;;;;;;13.70;7.70;;;;;;;12.98;76.58;101372.25;5055819;28;20874;-46
2021/03/31 08:36:54;;;;;;;18.73;6.82;;;;;;;13.04;76.44;101373.66;5059923;28;20061;-47
2021/03/31 08:39:22;;;;;;;11.30;6.40;;;;;;;13.11;76.18;101365.59;5043295;28;20049;-47
2021/03/31 08:41:52;;;;;;;14.00;6.03;;;;;;;13.16;76.14;101368.13;5042761;28;20091;-48
2021/03/31 08:44:32;;;;;;;12.45;7.05;;;;;;;13.23;75.54;101362.81;5049359;28;20128;-52
2021/03/31 08:47:08;;;;;;;13.05;5.68;;;;;;;13.27;75.26;101372.91;5048572;28;20040;-49
2021/03/31 08:49:39;;;;;;;10.35;5.25;;;;;;;13.30;75.50;101374.16;5047456;28;20425;-51
2021/03/31 08:52:09;;;;;;;13.57;4.53;;;;;;;13.32;75.24;101377.41;5054521;28;20376;-50
2021/03/31 08:54:46;;;;;;;16.98;5.45;;;;;;;13.28;75.04;101370.94;5048834;28;20150;-50
2021/03/31 08:57:25;;;;;;;8.23;4.32;;;;;;;13.22;74.97;101383.44;5048657;28;20139;-46
2021/03/31 08:59:54;;;;;;;11.40;4.90;;;;;;;13.22;75.17;101377.88;5048394;28;20052;-52
2021/03/31 09:02:22;;;;;;;11.93;5.80;;;;;;;13.28;74.99;101374.53;5029193;28;20143;-48
2021/03/31 09:05:00;;;;;;;12.15;5.15;;;;;;;13.41;75.17;101375.31;5036737;28;20033;-50
2021/03/31 09:07:28;;;;;;;8.10;3.70;;;;;;;13.50;74.71;101378.81;5046401;28;20131;-49
2021/03/31 09:09:54;;;;;;;6.53;3.58;;;;;;;13.53;74.47;101375.28;5050518;28;20064;-52
2021/03/31 09:12:25;;;;;;;7.80;2.42;;;;;;;13.54;74.13;101370.56;5036643;28;20442;-54
2021/03/31 09:14:58;;;;;;;12.73;3.60;;;;;;;13.60;74.46;101377.50;5048136;28;20040;-52
2021/03/31 09:17:26;;;;;;;5.25;2.42;;;;;;;13.61;74.36;101379.94;5045900;28;20041;-48
2021/03/31 09:19:56;;;;;;;5.68;2.50;;;;;;;13.70;74.09;101372.28;5045160;28;20386;-51
2021/03/31 09:22:28;;;;;;;8.55;2.95;;;;;;;14.21;74.13;101369.78;5046744;28;20076;-51
2021/03/31 09:24:58;;;;;;;;;;;;;;;14.76;72.41;101375.34;5045562;28;20620;-48
2021/03/31 09:27:30;;;;;;;10.13;3.10;;;;;;;15.20;73.00;101368.50;5034233;28;19972;-49
2021/03/31 09:30:01;;;;;;;7.47;3.20;;;;;;;15.48;72.54;101370.38;5055999;28;20055;-51
2021/03/31 09:32:33;;;;;;;12.82;7.25;;;;;;;15.65;71.91;101369.97;5048026;28;20080;-48
2021/03/31 09:35:11;;;;;;;8.45;3.28;;;;;;;15.70;70.00;101369.72;5047488;28;20057;-53
2021/03/31 09:37:45;;;;;;;5.82;3.22;;;;;;;15.62;70.22;101367.94;5059560;28;20064;-49
2021/03/31 09:40:33;;;;;;;6.40;3.20;;;;;;;15.41;69.55;101370.97;5063685;28;20048;-56
2021/03/31 09:43:02;;;;;;;10.32;4.22;;;;;;;15.51;69.16;101378.84;5066250;28;20059;-51
2021/03/31 09:45:30;;;;;;;8.95;3.72;;;;;;;15.97;68.79;101368.69;5050805;28;20041;-52
2021/03/31 09:47:58;;;;;;;9.27;4.70;;;;;;;16.31;68.10;101379.00;5068153;28;20144;-54
2021/03/31 09:50:26;;;;;;;11.45;4.00;;;;;;;16.39;67.34;101372.38;5066482;28;20832;-49
2021/03/31 09:52:58;;;;;;;10.60;4.47;;;;;;;16.44;66.06;101376.88;5067706;28;20101;-49
2021/03/31 09:55:26;;;;;;;3.95;2.33;;;;;;;16.61;66.18;101367.22;5063371;28;20107;-48
2021/03/31 09:57:55;;;;;;;5.43;2.65;;;;;;;17.10;66.25;101370.91;5067776;28;20036;-52
2021/03/31 10:00:24;;;;;;;9.15;2.50;;;;;;;17.42;65.20;101366.63;5067196;28;20140;-50
2021/03/31 10:02:52;;;;;;;6.00;3.38;;;;;;;17.82;64.29;101373.66;5068173;28;20091;-50
2021/03/31 10:05:24;;;;;;;6.97;2.90;;;;;;;18.28;63.28;101369.44;5067886;28;20041;-53
2021/03/31 10:08:20;;;;;;;7.47;3.40;;;;;;;18.68;61.18;101366.72;5061665;28;20105;-53
2021/03/31 10:10:48;;;;;;;4.22;2.80;;;;;;;18.97;61.08;101372.59;5057647;28;20486;-48
2021/03/31 10:13:16;;;;;;;3.05;1.55;;;;;;;19.18;59.94;101364.38;5067759;28;20040;-50
2021/03/31 10:15:56;;;;;;;7.43;1.95;;;;;;;19.42;58.45;101366.59;5066046;28;20049;-51
2021/03/31 10:18:24;;;;;;;7.65;2.10;;;;;;;19.67;58.63;101361.94;5064244;28;20389;-53
2021/03/31 10:20:51;;;;;;;4.57;1.90;;;;;;;19.90;57.83;101359.66;5065372;28;20056;-49
2021/03/31 10:23:30;;;;;;;4.22;1.98;;;;;;;20.17;56.56;101353.78;5065788;28;20071;-51
2021/03/31 10:26:24;;;;;;;5.60;2.63;;;;;;;20.37;55.85;101355.88;5057160;28;20552;-53
2021/03/31 10:29:03;;;;;;;7.70;2.92;;;;;;;20.24;55.70;101351.00;5059703;28;20415;-51
2021/03/31 10:31:40;;;;;;;4.78;2.30;;;;;;;20.14;56.09;101351.75;5067250;28;20048;-47
2021/03/31 10:34:15;;;;;;;5.68;3.03;;;;;;;20.31;55.63;101351.03;5067321;28;20563;-49
2021/03/31 10:56:23;;;;;;;9.52;2.83;;;;;;;18.61;55.29;101347.00;5086603;28;20045;-52
2021/03/31 10:58:50;;;;;;;6.50;3.17;;;;;;;18.52;55.71;101340.09;5069873;28;20094;-52
2021/03/31 11:01:16;;;;;;;8.77;4.35;;;;;;;18.45;55.97;101338.00;5071593;28;20072;-54
2021/03/31 11:03:42;;;;;;;9.68;3.63;;;;;;;18.57;55.96;101336.94;5071839;28;20147;-50
2021/03/31 11:06:09;;;;;;;4.85;2.70;;;;;;;18.64;56.19;101332.19;5071539;28;20041;-50
2021/03/31 11:08:36;;;;;;;4.15;2.28;;;;;;;18.72;56.21;101333.06;5070104;28;20098;-50
2021/03/31 11:11:05;;;;;;;4.70;2.70;;;;;;;18.68;56.52;101333.06;5068362;28;20076;-48
2021/03/31 11:13:31;;;;;;;5.85;2.25;;;;;;;18.46;56.80;101328.38;5071044;28;20059;-48
2021/03/31 11:16:01;;;;;;;5.47;2.35;;;;;;;18.26;57.12;101332.56;5071329;28;20070;-51
2021/03/31 11:18:56;;;;;;;10.25;2.63;;;;;;;18.15;56.96;101337.25;5071309;28;20067;-48
2021/03/31 11:26:47;;;;;;;8.55;2.75;;;;;;;17.70;58.03;101335.47;5067239;28;20072;-50
2021/03/31 11:29:14;;;;;;;5.85;2.35;;;;;;;17.60;58.14;101334.16;5069605;28;20082;-49
2021/03/31 11:31:40;;;;;;;3.13;1.88;;;;;;;17.60;58.38;101330.53;5071266;28;20105;-50
2021/03/31 11:34:06;;;;;;;7.10;2.47;;;;;;;17.62;58.55;101345.78;5070489;28;20639;-47
2021/03/31 11:36:33;;;;;;;6.97;3.13;;;;;;;17.63;58.67;101332.56;5063096;28;20049;-49
2021/03/31 11:39:01;;;;;;;6.25;2.28;;;;;;;17.65;58.67;101330.19;5049677;28;20041;-50
2021/03/31 11:41:27;;;;;;;8.38;4.15;;;;;;;17.68;58.76;101335.03;5052370;28;20044;-48
2021/03/31 11:43:54;;;;;;;8.25;3.05;;;;;;;17.72;58.65;101330.28;5050801;28;20170;-52
2021/03/31 11:46:20;;;;;;;6.25;2.80;;;;;;;17.77;58.74;101331.94;5050276;28;20083;-51
2021/03/31 11:48:47;;;;;;;5.07;3.58;;;;;;;17.78;58.77;101327.97;5049334;28;20079;-47
2021/03/31 11:51:13;;;;;;;8.75;3.67;;;;;;;17.80;58.81;101325.59;5046904;28;20125;-48
2021/03/31 11:53:39;;;;;;;5.05;2.67;;;;;;;17.74;59.06;101332.72;5050750;28;20113;-47
2021/03/31 11:56:07;;;;;;;7.00;2.85;;;;;;;17.67;59.17;101321.41;5049341;28;20548;-48
2021/03/31 11:58:33;;;;;;;6.20;3.10;;;;;;;17.62;59.34;101319.75;5055099;28;20059;-51